Airfield :
LOGIN :

Register | Disclaimer

   EN    FR    IT 

 










Legend :    VFR   Marginal VFR   IFR   Intensive IFR   Very Intensive IFR
Visi :
Ceiling :
>= 8 km
>= 3000ft
5 to 8 km
1000 to 3000 ft
1500m to 5 km
500 to 1000 ft
800 to 1500m
200 to 500 ft
< 800m
< 200 ft
Symbols :   Thunderstorms  Fog  Heavy snow  Heavy precipitations  Wind > 20 kt
SIGMETs :     Misc.  Thunderstorms  Icing  Turbulence  Mountain Waves  Volcanic Ashes






- Airport Elevation : 1202 ft
- IATA code : IGS


ETSI - Ingolstadt

CURRENT METAR :
  • 091920Z 28012KT 9999 SCT018 BKN035 06/03 Q1008 BLU

EXPIRED METARs :
  • 091902Z 27009KT 9999 SCT018 BKN035 06/03 Q1008 BLU
  • 091850Z 28008KT 9999 BKN018 06/03 Q1007 WHT
  • 091820Z 26007KT 9999 FEW025 SCT090 BKN200 05/02 Q1007 BLU+
  • 091720Z 25007KT 9999 SCT030 05/02 Q1006 BLU+

TAF TAF ETSI
Valid from the 09 at 15:00 until the 10 at 00:00 UTC


091415Z 0915/0924 23010G20KT 9999 NSW SCT020 BKN035
TEMPO 0915/0924 27015G25KT 5000 SHRA FEW010 BKN020CB BKN200 CANCEL 1520



MET'MAP, your aeronautical weather chart ! - Copyright ORBIFLY December 2007 - Disclaimer

ORBIFLY MET'MAP TEAM :

Programming & Development : Alexandra Zaïnal
Concept & original design : Baudouin d'Aumeries
Assistance for programming : Marc-Olivier Méhu
Technical & hardware support : Manuel Goepfert

Contact : metmap@orbifly.com




SOURCES & CREDITS :

   NOAA